sensor_id;sensor_type;location;lat;lon;timestamp;pressure;altitude;pressure_sealevel;temperature;humidity
80184;BME280;69682;52.138;5.440;2024-03-23T00:56:13;101114.75;;;6.72;100.00
80184;BME280;69682;52.138;5.440;2024-03-23T00:58:39;101105.28;;;6.68;99.64
80184;BME280;69682;52.138;5.440;2024-03-23T01:01:04;101105.19;;;6.70;100.00
80184;BME280;69682;52.138;5.440;2024-03-23T01:03:30;101112.03;;;6.74;100.00
80184;BME280;69682;52.138;5.440;2024-03-23T01:06:00;101112.88;;;6.74;100.00
80184;BME280;69682;52.138;5.440;2024-03-23T01:08:26;101108.44;;;6.75;100.00
80184;BME280;69682;52.138;5.440;2024-03-23T01:10:56;101112.09;;;6.72;100.00
80184;BME280;69682;52.138;5.440;2024-03-23T01:13:21;101110.47;;;6.70;100.00
80184;BME280;69682;52.138;5.440;2024-03-23T01:15:52;101100.66;;;6.72;100.00
80184;BME280;69682;52.138;5.440;2024-03-23T01:18:21;101099.81;;;6.71;100.00
80184;BME280;69682;52.138;5.440;2024-03-23T01:20:47;101092.78;;;6.70;100.00
80184;BME280;69682;52.138;5.440;2024-03-23T01:23:14;101093.56;;;6.72;100.00
80184;BME280;69682;52.138;5.440;2024-03-23T01:25:43;101093.66;;;6.71;100.00
80184;BME280;69682;52.138;5.440;2024-03-23T01:28:16;101083.06;;;6.71;100.00
80184;BME280;69682;52.138;5.440;2024-03-23T01:30:42;101075.22;;;6.69;100.00
80184;BME280;69682;52.138;5.440;2024-03-23T01:33:10;101075.13;;;6.71;100.00
80184;BME280;69682;52.138;5.440;2024-03-23T01:35:38;101079.53;;;6.70;100.00
80184;BME280;69682;52.138;5.440;2024-03-23T01:38:04;101074.25;;;6.70;100.00
80184;BME280;69682;52.138;5.440;2024-03-23T01:40:29;101068.88;;;6.72;100.00
80184;BME280;69682;52.138;5.440;2024-03-23T01:43:07;101057.53;;;6.70;100.00
80184;BME280;69682;52.138;5.440;2024-03-23T01:45:36;101055.03;;;6.67;100.00
80184;BME280;69682;52.138;5.440;2024-03-23T01:48:02;101049.75;;;6.67;100.00
80184;BME280;69682;52.138;5.440;2024-03-23T01:50:29;101047.28;;;6.64;100.00
80184;BME280;69682;52.138;5.440;2024-03-23T01:52:58;101048.22;;;6.63;100.00
80184;BME280;69682;52.138;5.440;2024-03-23T01:55:26;101049.31;;;6.58;100.00
80184;BME280;69682;52.138;5.440;2024-03-23T01:57:52;101045.94;;;6.56;100.00
80184;BME280;69682;52.138;5.440;2024-03-23T02:00:18;101046.78;;;6.57;100.00
80184;BME280;69682;52.138;5.440;2024-03-23T02:02:47;101047.63;;;6.57;100.00
80184;BME280;69682;52.138;5.440;2024-03-23T02:05:13;101046.78;;;6.57;100.00
80184;BME280;69682;52.138;5.440;2024-03-23T02:07:39;101038.16;;;6.53;100.00
80184;BME280;69682;52.138;5.440;2024-03-23T02:10:07;101032.94;;;6.52;100.00
80184;BME280;69682;52.138;5.440;2024-03-23T02:12:33;101041.06;;;6.49;100.00
80184;BME280;69682;52.138;5.440;2024-03-23T02:14:58;101037.81;;;6.44;100.00
80184;BME280;69682;52.138;5.440;2024-03-23T02:17:24;101045.91;;;6.41;100.00
80184;BME280;69682;52.138;5.440;2024-03-23T02:19:50;101039.94;;;6.37;100.00
80184;BME280;69682;52.138;5.440;2024-03-23T02:22:16;101042.09;;;6.30;100.00
80184;BME280;69682;52.138;5.440;2024-03-23T02:24:42;101044.91;;;6.27;100.00
80184;BME280;69682;52.138;5.440;2024-03-23T02:27:08;101038.16;;;6.22;100.00
80184;BME280;69682;52.138;5.440;2024-03-23T02:29:34;101039.34;;;6.16;100.00
80184;BME280;69682;52.138;5.440;2024-03-23T02:32:00;101035.00;;;6.15;100.00
80184;BME280;69682;52.138;5.440;2024-03-23T02:34:26;101022.78;;;6.12;100.00
80184;BME280;69682;52.138;5.440;2024-03-23T02:36:52;101016.81;;;6.09;100.00
80184;BME280;69682;52.138;5.440;2024-03-23T02:39:18;101024.03;;;6.05;100.00
80184;BME280;69682;52.138;5.440;2024-03-23T02:41:43;101023.47;;;6.00;100.00
80184;BME280;69682;52.138;5.440;2024-03-23T02:44:09;101023.53;;;5.99;100.00
80184;BME280;69682;52.138;5.440;2024-03-23T02:46:37;101025.22;;;6.00;100.00
80184;BME280;69682;52.138;5.440;2024-03-23T02:49:03;101024.47;;;5.98;100.00
80184;BME280;69682;52.138;5.440;2024-03-23T02:51:30;101018.34;;;5.97;100.00
80184;BME280;69682;52.138;5.440;2024-03-23T02:53:56;101012.94;;;5.99;100.00
80184;BME280;69682;52.138;5.440;2024-03-23T02:56:22;101024.47;;;5.98;99.69
80184;BME280;69682;52.138;5.440;2024-03-23T02:58:47;101025.56;;;5.94;99.33
80184;BME280;69682;52.138;5.440;2024-03-23T03:01:13;101020.19;;;5.95;99.89
80184;BME280;69682;52.138;5.440;2024-03-23T03:03:39;101019.34;;;5.95;99.77
80184;BME280;69682;52.138;5.440;2024-03-23T03:06:04;101019.41;;;5.93;99.76
80184;BME280;69682;52.138;5.440;2024-03-23T03:08:30;101023.03;;;5.90;99.11
80184;BME280;69682;52.138;5.440;2024-03-23T03:10:55;101025.97;;;5.86;99.40
80184;BME280;69682;52.138;5.440;2024-03-23T03:13:21;101024.31;;;5.83;99.29
80184;BME280;69682;52.138;5.440;2024-03-23T03:15:47;101017.47;;;5.79;98.65
80184;BME280;69682;52.138;5.440;2024-03-23T03:18:15;101020.13;;;5.79;98.61
80184;BME280;69682;52.138;5.440;2024-03-23T03:20:41;101020.22;;;5.78;98.34
80184;BME280;69682;52.138;5.440;2024-03-23T03:23:07;101015.16;;;5.73;98.53
80184;BME280;69682;52.138;5.440;2024-03-23T03:25:33;101017.13;;;5.69;98.57
80184;BME280;69682;52.138;5.440;2024-03-23T03:27:59;101023.34;;;5.68;98.73
80184;BME280;69682;52.138;5.440;2024-03-23T03:30:25;101013.84;;;5.64;98.89
80184;BME280;69682;52.138;5.440;2024-03-23T03:32:52;101012.25;;;5.62;98.56
80184;BME280;69682;52.138;5.440;2024-03-23T03:35:18;101015.75;;;5.62;98.60
80184;BME280;69682;52.138;5.440;2024-03-23T03:37:43;101004.56;;;5.57;98.47
80184;BME280;69682;52.138;5.440;2024-03-23T03:40:13;101007.38;;;5.54;98.85
80184;BME280;69682;52.138;5.440;2024-03-23T03:42:40;101006.56;;;5.52;98.11
80184;BME280;69682;52.138;5.440;2024-03-23T03:45:07;101002.31;;;5.50;98.42
80184;BME280;69682;52.138;5.440;2024-03-23T03:47:33;100994.69;;;5.43;98.41
80184;BME280;69682;52.138;5.440;2024-03-23T03:49:59;100995.72;;;5.41;98.56
80184;BME280;69682;52.138;5.440;2024-03-23T03:52:25;100994.88;;;5.40;98.09
80184;BME280;69682;52.138;5.440;2024-03-23T03:54:51;100995.13;;;5.36;98.56
80184;BME280;69682;52.138;5.440;2024-03-23T03:57:18;100986.41;;;5.34;98.63
80184;BME280;69682;52.138;5.440;2024-03-23T03:59:44;100990.16;;;5.30;98.14
80184;BME280;69682;52.138;5.440;2024-03-23T04:02:10;100987.50;;;5.30;98.01
80184;BME280;69682;52.138;5.440;2024-03-23T04:04:35;100987.50;;;5.30;97.56
80184;BME280;69682;52.138;5.440;2024-03-23T04:07:02;100991.16;;;5.27;98.10
80184;BME280;69682;52.138;5.440;2024-03-23T04:09:28;100995.75;;;5.23;97.64
80184;BME280;69682;52.138;5.440;2024-03-23T04:11:53;100995.97;;;5.19;97.96
80184;BME280;69682;52.138;5.440;2024-03-23T04:14:19;100989.06;;;5.16;97.86
80184;BME280;69682;52.138;5.440;2024-03-23T04:16:44;100985.72;;;5.13;97.83
80184;BME280;69682;52.138;5.440;2024-03-23T04:19:10;100975.25;;;5.11;97.88
80184;BME280;69682;52.138;5.440;2024-03-23T04:21:38;100985.03;;;5.09;98.00
80184;BME280;69682;52.138;5.440;2024-03-23T04:24:04;100977.19;;;5.08;97.56
80184;BME280;69682;52.138;5.440;2024-03-23T04:26:30;100982.72;;;5.03;97.65
80184;BME280;69682;52.138;5.440;2024-03-23T04:28:55;100979.13;;;5.04;97.93
80184;BME280;69682;52.138;5.440;2024-03-23T04:31:21;100976.50;;;5.04;97.65
80184;BME280;69682;52.138;5.440;2024-03-23T04:33:47;100977.28;;;5.06;97.11
80184;BME280;69682;52.138;5.440;2024-03-23T04:36:13;100977.59;;;5.00;97.22
80184;BME280;69682;52.138;5.440;2024-03-23T04:38:38;100968.09;;;4.96;97.35
80184;BME280;69682;52.138;5.440;2024-03-23T04:41:07;100978.66;;;4.96;97.71
80184;BME280;69682;52.138;5.440;2024-03-23T04:43:33;100978.91;;;4.91;97.44
80184;BME280;69682;52.138;5.440;2024-03-23T04:45:59;100969.34;;;4.89;97.26
80184;BME280;69682;52.138;5.440;2024-03-23T04:48:24;100971.28;;;4.85;97.02
80184;BME280;69682;52.138;5.440;2024-03-23T04:50:54;100981.06;;;4.83;97.02
80184;BME280;69682;52.138;5.440;2024-03-23T04:53:20;100978.44;;;4.83;97.31
80184;BME280;69682;52.138;5.440;2024-03-23T04:55:46;100975.84;;;4.82;96.97
80184;BME280;69682;52.138;5.440;2024-03-23T04:58:11;100968.78;;;4.82;97.46
80184;BME280;69682;52.138;5.440;2024-03-23T05:00:37;100971.53;;;4.81;97.13
80184;BME280;69682;52.138;5.440;2024-03-23T05:03:03;100971.69;;;4.77;97.14
80184;BME280;69682;52.138;5.440;2024-03-23T05:05:32;100969.09;;;4.76;96.50
80184;BME280;69682;52.138;5.440;2024-03-23T05:07:58;100973.63;;;4.74;96.90
80184;BME280;69682;52.138;5.440;2024-03-23T05:10:27;100977.25;;;4.71;96.68
80184;BME280;69682;52.138;5.440;2024-03-23T05:12:53;100975.78;;;4.66;96.34
80184;BME280;69682;52.138;5.440;2024-03-23T05:15:18;100975.09;;;4.62;96.11
80184;BME280;69682;52.138;5.440;2024-03-23T05:17:44;100970.88;;;4.58;96.33
80184;BME280;69682;52.138;5.440;2024-03-23T05:20:12;100967.47;;;4.56;96.49
80184;BME280;69682;52.138;5.440;2024-03-23T05:22:38;100976.38;;;4.53;96.36
80184;BME280;69682;52.138;5.440;2024-03-23T05:25:04;100984.38;;;4.52;96.10
80184;BME280;69682;52.138;5.440;2024-03-23T05:27:33;100980.22;;;4.46;95.62
80184;BME280;69682;52.138;5.440;2024-03-23T05:29:59;100978.59;;;4.44;96.20
80184;BME280;69682;52.138;5.440;2024-03-23T05:32:25;100978.75;;;4.41;95.70
80184;BME280;69682;52.138;5.440;2024-03-23T05:34:52;100984.97;;;4.40;96.16
80184;BME280;69682;52.138;5.440;2024-03-23T05:37:22;100983.31;;;4.37;95.92
80184;BME280;69682;52.138;5.440;2024-03-23T05:39:48;100987.75;;;4.37;96.04
80184;BME280;69682;52.138;5.440;2024-03-23T05:42:16;100985.16;;;4.35;95.87
80184;BME280;69682;52.138;5.440;2024-03-23T05:44:46;100989.75;;;4.31;95.49
80184;BME280;69682;52.138;5.440;2024-03-23T05:47:13;100985.31;;;4.32;95.72
80184;BME280;69682;52.138;5.440;2024-03-23T05:49:43;100985.25;;;4.33;95.74
80184;BME280;69682;52.138;5.440;2024-03-23T05:52:09;100978.13;;;4.36;95.78
80184;BME280;69682;52.138;5.440;2024-03-23T05:54:35;100977.19;;;4.37;96.02
80184;BME280;69682;52.138;5.440;2024-03-23T05:57:02;100978.13;;;4.36;95.76
80184;BME280;69682;52.138;5.440;2024-03-23T05:59:28;100973.63;;;4.38;95.63
80184;BME280;69682;52.138;5.440;2024-03-23T06:01:54;100970.91;;;4.39;95.66
80184;BME280;69682;52.138;5.440;2024-03-23T06:04:20;100969.97;;;4.40;95.42
80184;BME280;69682;52.138;5.440;2024-03-23T06:06:46;100965.66;;;4.39;95.33
80184;BME280;69682;52.138;5.440;2024-03-23T06:09:12;100972.56;;;4.42;95.44
80184;BME280;69682;52.138;5.440;2024-03-23T06:11:38;100975.91;;;4.45;95.54
80184;BME280;69682;52.138;5.440;2024-03-23T06:14:03;100970.69;;;4.44;95.15
80184;BME280;69682;52.138;5.440;2024-03-23T06:16:33;100976.75;;;4.46;94.71
80184;BME280;69682;52.138;5.440;2024-03-23T06:18:59;100967.97;;;4.45;94.83
80184;BME280;69682;52.138;5.440;2024-03-23T06:21:25;100982.88;;;4.46;95.01
80184;BME280;69682;52.138;5.440;2024-03-23T06:23:54;100970.53;;;4.47;94.95
80184;BME280;69682;52.138;5.440;2024-03-23T06:26:20;100978.44;;;4.47;94.58
80184;BME280;69682;52.138;5.440;2024-03-23T06:28:49;100972.31;;;4.46;94.19
80184;BME280;69682;52.138;5.440;2024-03-23T06:31:14;100964.41;;;4.46;94.50
80184;BME280;69682;52.138;5.440;2024-03-23T06:33:40;100960.75;;;4.49;94.67
80184;BME280;69682;52.138;5.440;2024-03-23T06:36:10;100955.50;;;4.49;94.25
80184;BME280;69682;52.138;5.440;2024-03-23T06:38:39;100950.06;;;4.52;94.26
80184;BME280;69682;52.138;5.440;2024-03-23T06:41:05;100958.69;;;4.55;94.51
80184;BME280;69682;52.138;5.440;2024-03-23T06:43:31;100960.41;;;4.57;94.00
80184;BME280;69682;52.138;5.440;2024-03-23T06:45:57;100962.09;;;4.58;94.07
80184;BME280;69682;52.138;5.440;2024-03-23T06:48:23;100962.03;;;4.59;93.74
80184;BME280;69682;52.138;5.440;2024-03-23T06:50:49;100953.09;;;4.62;94.13
80184;BME280;69682;52.138;5.440;2024-03-23T06:53:15;100953.03;;;4.63;94.08
80184;BME280;69682;52.138;5.440;2024-03-23T06:55:43;100947.59;;;4.66;94.08
80184;BME280;69682;52.138;5.440;2024-03-23T06:58:15;100961.50;;;4.70;94.03
80184;BME280;69682;52.138;5.440;2024-03-23T07:00:41;100964.75;;;4.75;93.59
80184;BME280;69682;52.138;5.440;2024-03-23T07:03:06;100956.53;;;4.81;93.55
80184;BME280;69682;52.138;5.440;2024-03-23T07:05:35;100966.78;;;4.87;93.33
80184;BME280;69682;52.138;5.440;2024-03-23T07:08:04;100964.69;;;4.94;93.05
80184;BME280;69682;52.138;5.440;2024-03-23T07:10:30;100970.69;;;4.97;93.18
80184;BME280;69682;52.138;5.440;2024-03-23T07:12:55;100960.72;;;5.03;92.96
80184;BME280;69682;52.138;5.440;2024-03-23T07:15:21;100971.06;;;5.07;92.92
80184;BME280;69682;52.138;5.440;2024-03-23T07:17:47;100953.25;;;5.11;92.54
80184;BME280;69682;52.138;5.440;2024-03-23T07:20:13;100957.38;;;5.16;92.98
80184;BME280;69682;52.138;5.440;2024-03-23T07:22:39;100952.63;;;5.23;92.78
80184;BME280;69682;52.138;5.440;2024-03-23T07:25:05;100949.75;;;5.28;92.57
80184;BME280;69682;52.138;5.440;2024-03-23T07:27:32;100959.03;;;5.35;92.28
80184;BME280;69682;52.138;5.440;2024-03-23T07:29:57;100958.72;;;5.41;92.55
80184;BME280;69682;52.138;5.440;2024-03-23T07:32:23;100958.41;;;5.47;92.13
80184;BME280;69682;52.138;5.440;2024-03-23T07:34:49;100966.72;;;5.57;91.99
80184;BME280;69682;52.138;5.440;2024-03-23T07:37:14;100955.81;;;5.63;92.19
80184;BME280;69682;52.138;5.440;2024-03-23T07:39:41;100961.53;;;5.71;91.70
80184;BME280;69682;52.138;5.440;2024-03-23T07:42:09;100958.47;;;5.79;91.95
80184;BME280;69682;52.138;5.440;2024-03-23T07:44:36;100964.03;;;5.90;91.23
80184;BME280;69682;52.138;5.440;2024-03-23T07:47:03;100956.47;;;6.00;90.79
80184;BME280;69682;52.138;5.440;2024-03-23T07:49:30;100962.53;;;6.02;89.41
80184;BME280;69682;52.138;5.440;2024-03-23T07:51:55;100952.56;;;6.07;89.28
80184;BME280;69682;52.138;5.440;2024-03-23T07:54:22;100959.66;;;6.06;89.29
80184;BME280;69682;52.138;5.440;2024-03-23T07:56:48;100961.28;;;6.09;89.29
80184;BME280;69682;52.138;5.440;2024-03-23T07:59:13;100958.09;;;6.18;88.73
80184;BME280;69682;52.138;5.440;2024-03-23T08:01:39;100958.78;;;6.22;87.97
80184;BME280;69682;52.138;5.440;2024-03-23T08:04:05;100962.09;;;6.25;88.00
80184;BME280;69682;52.138;5.440;2024-03-23T08:06:31;100963.63;;;6.29;87.52
80184;BME280;69682;52.138;5.440;2024-03-23T08:08:57;100954.78;;;6.30;87.11
80184;BME280;69682;52.138;5.440;2024-03-23T08:11:27;100956.38;;;6.33;86.69
80184;BME280;69682;52.138;5.440;2024-03-23T08:13:53;100959.53;;;6.40;87.15
80184;BME280;69682;52.138;5.440;2024-03-23T08:16:19;100957.66;;;6.42;85.68
80184;BME280;69682;52.138;5.440;2024-03-23T08:18:44;100954.91;;;6.43;85.25
80184;BME280;69682;52.138;5.440;2024-03-23T08:21:10;100946.38;;;6.54;85.81
80184;BME280;69682;52.138;5.440;2024-03-23T08:23:39;100951.19;;;6.62;85.24
80184;BME280;69682;52.138;5.440;2024-03-23T08:26:09;100952.94;;;6.63;84.90
80184;BME280;69682;52.138;5.440;2024-03-23T08:28:36;100957.00;;;6.68;84.08
80184;BME280;69682;52.138;5.440;2024-03-23T08:31:04;100957.69;;;6.72;83.40
80184;BME280;69682;52.138;5.440;2024-03-23T08:33:34;100957.25;;;6.79;83.27
80184;BME280;69682;52.138;5.440;2024-03-23T08:36:04;100957.16;;;6.81;82.59
80184;BME280;69682;52.138;5.440;2024-03-23T08:38:30;100958.34;;;6.75;83.38
80184;BME280;69682;52.138;5.440;2024-03-23T08:41:01;100958.47;;;6.74;81.81
80184;BME280;69682;52.138;5.440;2024-03-23T08:43:28;100953.25;;;6.72;81.78
80184;BME280;69682;52.138;5.440;2024-03-23T08:48:34;100967.91;;;6.78;81.39
80184;BME280;69682;52.138;5.440;2024-03-23T08:51:01;100972.97;;;6.82;81.47
80184;BME280;69682;52.138;5.440;2024-03-23T08:53:28;100949.16;;;6.67;81.87
80184;BME280;69682;52.138;5.440;2024-03-23T08:55:59;100957.13;;;6.51;82.56
80184;BME280;69682;52.138;5.440;2024-03-23T08:58:26;100959.28;;;6.44;82.62
80184;BME280;69682;52.138;5.440;2024-03-23T09:00:52;100960.22;;;6.43;82.77
80184;BME280;69682;52.138;5.440;2024-03-23T09:03:18;100962.69;;;6.46;81.50
80184;BME280;69682;52.138;5.440;2024-03-23T09:05:44;100941.59;;;6.45;82.13
80184;BME280;69682;52.138;5.440;2024-03-23T09:08:09;100951.41;;;6.43;81.23
80184;BME280;69682;52.138;5.440;2024-03-23T09:10:40;100947.25;;;6.39;78.98
80184;BME280;69682;52.138;5.440;2024-03-23T09:13:06;100945.47;;;6.39;80.42
80184;BME280;69682;52.138;5.440;2024-03-23T09:15:46;100944.31;;;6.43;81.29
80184;BME280;69682;52.138;5.440;2024-03-23T09:18:12;100955.50;;;6.48;79.28
80184;BME280;69682;52.138;5.440;2024-03-23T09:20:37;100932.81;;;6.44;80.45
80184;BME280;69682;52.138;5.440;2024-03-23T09:23:06;100952.78;;;6.34;79.27
80184;BME280;69682;52.138;5.440;2024-03-23T09:25:31;100961.16;;;6.26;79.98
80184;BME280;69682;52.138;5.440;2024-03-23T09:27:58;100964.31;;;6.17;81.23
80184;BME280;69682;52.138;5.440;2024-03-23T09:30:23;100946.66;;;6.02;81.86
80184;BME280;69682;52.138;5.440;2024-03-23T09:32:49;100946.38;;;5.90;82.30
80184;BME280;69682;52.138;5.440;2024-03-23T09:35:15;100939.44;;;5.88;82.74
80184;BME280;69682;52.138;5.440;2024-03-23T09:37:40;100944.75;;;5.88;83.12
80184;BME280;69682;52.138;5.440;2024-03-23T09:40:10;100945.63;;;5.88;83.60
80184;BME280;69682;52.138;5.440;2024-03-23T09:42:36;100942.88;;;5.90;83.84
80184;BME280;69682;52.138;5.440;2024-03-23T09:45:05;100943.59;;;5.94;84.26
80184;BME280;69682;52.138;5.440;2024-03-23T09:47:32;100971.81;;;5.93;84.15
80184;BME280;69682;52.138;5.440;2024-03-23T09:50:00;100965.88;;;5.88;84.44
80184;BME280;69682;52.138;5.440;2024-03-23T09:52:26;100956.25;;;5.71;83.61
80184;BME280;69682;52.138;5.440;2024-03-23T09:54:52;100947.53;;;5.53;83.73
80184;BME280;69682;52.138;5.440;2024-03-23T09:57:17;100945.06;;;5.50;83.99
80184;BME280;69682;52.138;5.440;2024-03-23T09:59:43;100943.72;;;5.75;84.17
80184;BME280;69682;52.138;5.440;2024-03-23T10:02:09;100937.78;;;6.03;84.27
80184;BME280;69682;52.138;5.440;2024-03-23T10:04:37;100940.69;;;6.30;84.40
80184;BME280;69682;52.138;5.440;2024-03-23T10:07:21;100920.94;;;6.51;83.77
80184;BME280;69682;52.138;5.440;2024-03-23T10:09:56;100933.50;;;6.78;84.02
80184;BME280;69682;52.138;5.440;2024-03-23T10:12:23;100930.03;;;6.92;83.06
80184;BME280;69682;52.138;5.440;2024-03-23T10:14:49;100921.44;;;7.17;83.84
80184;BME280;69682;52.138;5.440;2024-03-23T10:17:19;100919.22;;;7.39;81.50
80184;BME280;69682;52.138;5.440;2024-03-23T10:19:46;100922.81;;;7.38;80.77
80184;BME280;69682;52.138;5.440;2024-03-23T10:22:23;100931.31;;;7.29;79.43
80184;BME280;69682;52.138;5.440;2024-03-23T10:24:50;100905.19;;;7.23;78.94
80184;BME280;69682;52.138;5.440;2024-03-23T10:27:20;100927.22;;;7.23;78.76
80184;BME280;69682;52.138;5.440;2024-03-23T10:29:49;100917.31;;;7.41;77.43
80184;BME280;69682;52.138;5.440;2024-03-23T10:32:18;100930.66;;;7.54;75.55
80184;BME280;69682;52.138;5.440;2024-03-23T10:34:44;100921.16;;;7.64;74.55
80184;BME280;69682;52.138;5.440;2024-03-23T10:37:10;100922.75;;;7.81;74.80
80184;BME280;69682;52.138;5.440;2024-03-23T10:39:42;100929.75;;;7.96;74.31
80184;BME280;69682;52.138;5.440;2024-03-23T10:42:11;100911.91;;;8.13;72.65
80184;BME280;69682;52.138;5.440;2024-03-23T10:44:38;100924.94;;;8.30;72.50
80184;BME280;69682;52.138;5.440;2024-03-23T10:47:04;100904.41;;;8.47;72.39
80184;BME280;69682;52.138;5.440;2024-03-23T10:49:32;100909.09;;;8.56;72.59
80184;BME280;69682;52.138;5.440;2024-03-23T10:51:58;100924.03;;;8.44;73.62
80184;BME280;69682;52.138;5.440;2024-03-23T10:54:25;100932.97;;;8.29;71.96
80184;BME280;69682;52.138;5.440;2024-03-23T10:57:15;100939.03;;;8.04;73.25
80184;BME280;69682;52.138;5.440;2024-03-23T10:59:45;100953.00;;;7.64;74.84
80184;BME280;69682;52.138;5.440;2024-03-23T11:02:21;100952.63;;;7.27;75.67
80184;BME280;69682;52.138;5.440;2024-03-23T11:04:47;100945.59;;;7.12;77.48
80184;BME280;69682;52.138;5.440;2024-03-23T11:07:32;100934.06;;;7.27;77.33
80184;BME280;69682;52.138;5.440;2024-03-23T11:09:59;100932.16;;;7.58;76.88
80184;BME280;69682;52.138;5.440;2024-03-23T11:12:29;100930.63;;;7.83;76.97
80184;BME280;69682;52.138;5.440;2024-03-23T11:14:58;100937.16;;;7.91;75.55
80184;BME280;69682;52.138;5.440;2024-03-23T11:17:25;100929.84;;;7.95;76.84
80184;BME280;69682;52.138;5.440;2024-03-23T11:19:58;100930.34;;;8.14;75.94
80184;BME280;69682;52.138;5.440;2024-03-23T11:22:43;100914.94;;;8.07;75.78
80184;BME280;69682;52.138;5.440;2024-03-23T11:25:19;100929.41;;;7.88;74.19
80184;BME280;69682;52.138;5.440;2024-03-23T11:27:51;100920.97;;;7.67;71.36
80184;BME280;69682;52.138;5.440;2024-03-23T11:30:27;100922.41;;;7.59;72.41
80184;BME280;69682;52.138;5.440;2024-03-23T11:32:56;100917.28;;;7.56;73.23
80184;BME280;69682;52.138;5.440;2024-03-23T11:38:13;100912.94;;;8.37;71.50
80184;BME280;69682;52.138;5.440;2024-03-23T11:40:42;100910.94;;;8.68;69.70
80184;BME280;69682;52.138;5.440;2024-03-23T11:43:09;100894.47;;;8.76;69.68
80184;BME280;69682;52.138;5.440;2024-03-23T11:45:47;100888.13;;;8.91;68.01
80184;BME280;69682;52.138;5.440;2024-03-23T11:48:15;100894.63;;;9.13;69.61
80184;BME280;69682;52.138;5.440;2024-03-23T11:50:42;100914.19;;;9.37;67.33
80184;BME280;69682;52.138;5.440;2024-03-23T11:53:18;100892.28;;;9.33;66.08
80184;BME280;69682;52.138;5.440;2024-03-23T11:55:58;100891.53;;;9.19;65.48
80184;BME280;69682;52.138;5.440;2024-03-23T11:58:25;100887.94;;;8.94;63.98
80184;BME280;69682;52.138;5.440;2024-03-23T12:00:58;100883.50;;;8.68;65.48
80184;BME280;69682;52.138;5.440;2024-03-23T12:03:25;100889.22;;;8.49;65.94
80184;BME280;69682;52.138;5.440;2024-03-23T12:05:53;100906.22;;;8.32;65.43
80184;BME280;69682;52.138;5.440;2024-03-23T12:11:11;100900.84;;;8.33;66.66
80184;BME280;69682;52.138;5.440;2024-03-23T12:13:38;100885.66;;;8.35;65.20
80184;BME280;69682;52.138;5.440;2024-03-23T12:16:15;100893.28;;;8.27;64.77
80184;BME280;69682;52.138;5.440;2024-03-23T12:18:42;100881.53;;;8.17;65.25
80184;BME280;69682;52.138;5.440;2024-03-23T12:21:11;100890.06;;;8.22;65.80
80184;BME280;69682;52.138;5.440;2024-03-23T12:23:39;100881.66;;;8.43;65.02
80184;BME280;69682;52.138;5.440;2024-03-23T12:26:05;100867.56;;;8.68;65.59
80184;BME280;69682;52.138;5.440;2024-03-23T12:28:32;100861.66;;;8.90;65.74
80184;BME280;69682;52.138;5.440;2024-03-23T12:30:58;100869.53;;;9.04;64.58
80184;BME280;69682;52.138;5.440;2024-03-23T12:33:24;100853.06;;;8.86;62.51
80184;BME280;69682;52.138;5.440;2024-03-23T12:35:50;100866.72;;;8.67;62.75
80184;BME280;69682;52.138;5.440;2024-03-23T12:38:16;100854.09;;;8.58;63.37
80184;BME280;69682;52.138;5.440;2024-03-23T12:40:50;100865.03;;;8.66;63.59
80184;BME280;69682;52.138;5.440;2024-03-23T12:43:16;100865.50;;;8.85;62.31
80184;BME280;69682;52.138;5.440;2024-03-23T12:45:46;100860.06;;;9.00;61.70
80184;BME280;69682;52.138;5.440;2024-03-23T12:48:12;100854.75;;;9.13;62.22
80184;BME280;69682;52.138;5.440;2024-03-23T12:50:37;100848.91;;;9.33;60.78
80184;BME280;69682;52.138;5.440;2024-03-23T12:53:03;100854.53;;;9.41;60.45
80184;BME280;69682;52.138;5.440;2024-03-23T12:55:30;100860.78;;;9.15;62.22
80184;BME280;69682;52.138;5.440;2024-03-23T12:57:56;100858.78;;;9.05;63.20
80184;BME280;69682;52.138;5.440;2024-03-23T13:00:22;100860.28;;;8.97;62.42
80184;BME280;69682;52.138;5.440;2024-03-23T13:02:50;100865.38;;;8.87;62.25
80184;BME280;69682;52.138;5.440;2024-03-23T13:05:16;100862.59;;;8.63;62.75
80184;BME280;69682;52.138;5.440;2024-03-23T13:07:42;100864.81;;;8.56;62.88
80184;BME280;69682;52.138;5.440;2024-03-23T13:10:07;100864.69;;;8.45;62.11
80184;BME280;69682;52.138;5.440;2024-03-23T13:12:34;100875.22;;;8.32;61.79
80184;BME280;69682;52.138;5.440;2024-03-23T13:15:00;100867.88;;;8.23;62.55
80184;BME280;69682;52.138;5.440;2024-03-23T13:17:26;100836.56;;;8.28;61.88
80184;BME280;69682;52.138;5.440;2024-03-23T13:19:55;100869.03;;;8.46;61.80
80184;BME280;69682;52.138;5.440;2024-03-23T13:22:23;100844.75;;;8.65;61.74
80184;BME280;69682;52.138;5.440;2024-03-23T13:24:49;100854.00;;;8.59;60.93
80184;BME280;69682;52.138;5.440;2024-03-23T13:27:15;100879.44;;;8.49;61.78
80184;BME280;69682;52.138;5.440;2024-03-23T13:29:41;100892.91;;;8.19;62.70
80184;BME280;69682;52.138;5.440;2024-03-23T13:32:06;100936.78;;;7.83;63.34
80184;BME280;69682;52.138;5.440;2024-03-23T13:34:32;100905.19;;;7.37;65.37
80184;BME280;69682;52.138;5.440;2024-03-23T13:37:00;100881.88;;;6.99;65.69
80184;BME280;69682;52.138;5.440;2024-03-23T13:39:26;100874.69;;;6.87;66.87
80184;BME280;69682;52.138;5.440;2024-03-23T13:41:54;100875.34;;;6.91;66.86
80184;BME280;69682;52.138;5.440;2024-03-23T13:44:21;100869.03;;;7.08;66.44
80184;BME280;69682;52.138;5.440;2024-03-23T13:46:47;100867.69;;;7.29;65.52
80184;BME280;69682;52.138;5.440;2024-03-23T13:49:24;100861.81;;;7.53;65.87
80184;BME280;69682;52.138;5.440;2024-03-23T13:51:50;100863.75;;;7.78;64.42
80184;BME280;69682;52.138;5.440;2024-03-23T13:54:16;100864.41;;;7.81;64.35
80184;BME280;69682;52.138;5.440;2024-03-23T13:56:42;100856.38;;;7.83;64.62
80184;BME280;69682;52.138;5.440;2024-03-23T13:59:07;100857.03;;;7.86;64.30
80184;BME280;69682;52.138;5.440;2024-03-23T14:01:33;100854.72;;;7.94;64.35